createdAt,value
2022-10-05T00:00:29.057Z,9.60
2022-10-05T00:05:33.545Z,9.60
2022-10-05T00:11:12.939Z,9.70
2022-10-05T00:13:40.481Z,9.70
2022-10-05T00:16:11.776Z,9.60
2022-10-05T00:18:41.993Z,9.70
2022-10-05T00:21:20.771Z,9.60
2022-10-05T00:23:50.272Z,9.60
2022-10-05T00:26:23.364Z,9.60
2022-10-05T00:28:50.699Z,9.70
2022-10-05T00:31:21.248Z,9.70
2022-10-05T00:33:49.790Z,9.60
2022-10-05T00:36:22.256Z,9.60
2022-10-05T00:38:49.075Z,9.50
2022-10-05T00:41:26.501Z,9.50
2022-10-05T00:44:12.857Z,9.40
2022-10-05T00:47:05.315Z,9.40
2022-10-05T00:50:04.782Z,9.30
2022-10-05T00:52:57.385Z,9.30
2022-10-05T00:55:37.869Z,9.30
2022-10-05T00:58:30.284Z,9.30
2022-10-05T01:01:13.276Z,9.30
2022-10-05T01:03:40.121Z,9.40
2022-10-05T01:06:51.308Z,9.40
2022-10-05T01:09:38.649Z,9.30
2022-10-05T01:12:14.923Z,9.30
2022-10-05T01:15:06.458Z,9.30
2022-10-05T01:17:45.037Z,9.20
2022-10-05T01:20:31.973Z,9.20
2022-10-05T01:23:20.514Z,9.20
2022-10-05T01:26:21.322Z,9.10
2022-10-05T01:29:19.592Z,9.10
2022-10-05T01:35:22.208Z,9.00
2022-10-05T01:38:11.860Z,8.80
2022-10-05T01:40:58.843Z,8.70
2022-10-05T01:43:57.939Z,8.70
2022-10-05T01:46:38.574Z,8.60
2022-10-05T01:49:34.881Z,8.60
2022-10-05T01:52:28.991Z,8.60
2022-10-05T01:55:14.010Z,8.50
2022-10-05T01:57:40.629Z,8.50
2022-10-05T02:00:10.610Z,8.50
2022-10-05T02:02:49.825Z,8.40
2022-10-05T02:05:23.737Z,8.30
2022-10-05T02:07:59.608Z,8.30
2022-10-05T02:10:47.132Z,8.20
2022-10-05T02:13:33.875Z,8.30
2022-10-05T02:16:27.155Z,8.20
2022-10-05T02:19:27.963Z,8.20
2022-10-05T02:22:01.538Z,8.30
2022-10-05T02:24:40.238Z,8.20
2022-10-05T02:27:10.042Z,8.30
2022-10-05T02:29:43.060Z,8.30
2022-10-05T02:32:15.374Z,8.30
2022-10-05T02:34:43.397Z,8.30
2022-10-05T02:37:30.127Z,8.30
2022-10-05T02:40:05.863Z,8.30
2022-10-05T02:43:03.573Z,8.20
2022-10-05T02:45:39.384Z,8.20
2022-10-05T02:48:30.525Z,8.20
2022-10-05T02:51:06.603Z,8.20
2022-10-05T02:53:57.389Z,8.20
2022-10-05T02:56:45.587Z,8.10
2022-10-05T02:59:26.559Z,8.10
2022-10-05T03:04:59.453Z,8.00
2022-10-05T03:07:35.555Z,8.00
2022-10-05T03:10:16.779Z,7.90
2022-10-05T03:13:26.041Z,7.90
2022-10-05T03:16:06.720Z,7.90
2022-10-05T03:18:46.331Z,7.90
2022-10-05T03:21:38.701Z,7.90
2022-10-05T03:24:18.117Z,7.90
2022-10-05T03:27:26.940Z,7.90
2022-10-05T03:30:10.234Z,7.90
2022-10-05T03:32:43.141Z,7.90
2022-10-05T03:35:35.943Z,7.90
2022-10-05T03:38:15.493Z,7.90
2022-10-05T03:40:53.913Z,7.90
2022-10-05T03:43:45.421Z,7.80
2022-10-05T03:55:27.285Z,7.80
2022-10-05T03:58:07.160Z,7.70
2022-10-05T04:00:37.461Z,7.70
2022-10-05T04:03:18.335Z,7.60
2022-10-05T04:05:52.946Z,7.60
2022-10-05T04:09:14.968Z,7.50
2022-10-05T04:12:18.743Z,7.50
2022-10-05T04:14:57.210Z,7.40
2022-10-05T04:17:44.136Z,7.40
2022-10-05T04:20:38.284Z,7.40
2022-10-05T04:23:29.951Z,7.40
2022-10-05T04:26:05.870Z,7.40
2022-10-05T04:28:50.001Z,7.40
2022-10-05T04:31:36.379Z,7.40
2022-10-05T04:34:34.127Z,7.40
2022-10-05T04:37:13.666Z,7.40
2022-10-05T04:39:58.230Z,7.40
2022-10-05T04:42:42.353Z,7.40
2022-10-05T04:45:31.314Z,7.40
2022-10-05T04:48:14.226Z,7.50
2022-10-05T04:54:33.648Z,7.50
2022-10-05T04:57:21.416Z,7.50
2022-10-05T05:00:33.199Z,7.40
2022-10-05T05:03:37.346Z,7.50
2022-10-05T05:06:38.563Z,7.40
2022-10-05T05:09:32.819Z,7.40
2022-10-05T05:12:03.334Z,7.40
2022-10-05T05:15:04.106Z,7.40
2022-10-05T05:18:12.564Z,7.40
2022-10-05T05:21:24.377Z,7.40
2022-10-05T05:24:21.460Z,7.40
2022-10-05T05:27:13.361Z,7.40
2022-10-05T05:30:16.455Z,7.50
2022-10-05T05:33:09.774Z,7.50
2022-10-05T05:36:07.658Z,7.40
2022-10-05T05:38:52.898Z,7.40
2022-10-05T05:41:25.915Z,7.30
2022-10-05T05:44:12.618Z,7.30
2022-10-05T05:47:04.041Z,7.20
2022-10-05T05:50:02.912Z,7.30
2022-10-05T05:52:58.099Z,7.30
2022-10-05T05:55:38.738Z,7.30
2022-10-05T05:58:28.011Z,7.30
2022-10-05T06:01:25.073Z,7.30
2022-10-05T06:10:40.779Z,7.30
2022-10-05T06:13:21.544Z,7.40
2022-10-05T06:16:40.821Z,7.40
2022-10-05T06:19:17.940Z,7.50
2022-10-05T06:22:08.535Z,7.50
2022-10-05T06:24:52.154Z,7.60
2022-10-05T06:27:36.455Z,7.70
2022-10-05T06:30:17.786Z,7.70
2022-10-05T06:33:20.536Z,7.80
2022-10-05T06:36:06.217Z,7.80
2022-10-05T06:38:55.017Z,7.80
2022-10-05T06:41:37.823Z,7.80
2022-10-05T06:44:19.617Z,7.90
2022-10-05T06:47:32.767Z,7.90
2022-10-05T06:50:56.360Z,8.00
2022-10-05T06:53:53.812Z,8.10
2022-10-05T06:56:59.234Z,8.20
2022-10-05T06:59:58.492Z,8.30
2022-10-05T07:02:51.484Z,8.40
2022-10-05T07:05:30.753Z,8.50
2022-10-05T07:08:11.285Z,8.60
2022-10-05T07:10:53.666Z,8.70
2022-10-05T07:13:48.567Z,8.80
2022-10-05T07:16:31.779Z,8.90
2022-10-05T07:19:28.025Z,9.00
2022-10-05T07:22:34.679Z,9.10
2022-10-05T07:25:23.166Z,9.20
2022-10-05T07:28:16.873Z,9.40
2022-10-05T07:31:01.443Z,9.50
2022-10-05T07:33:51.725Z,9.70
2022-10-05T07:37:16.382Z,9.90
2022-10-05T07:40:09.249Z,10.00
2022-10-05T07:42:59.266Z,10.30
2022-10-05T07:45:47.684Z,10.50
2022-10-05T07:48:32.373Z,10.70
2022-10-05T07:51:20.541Z,10.80
2022-10-05T07:54:16.950Z,11.10
2022-10-05T08:01:34.891Z,11.50
2022-10-05T08:04:41.698Z,11.80
2022-10-05T08:07:15.461Z,12.10
2022-10-05T08:10:15.936Z,12.40
2022-10-05T08:13:05.684Z,12.70
2022-10-05T08:15:44.192Z,12.90
2022-10-05T08:19:15.358Z,13.20
2022-10-05T08:27:32.142Z,13.90
2022-10-05T08:30:05.852Z,14.20
2022-10-05T08:33:48.494Z,14.40
2022-10-05T08:36:28.269Z,14.70
2022-10-05T08:39:03.426Z,14.90
2022-10-05T08:41:52.565Z,15.10
2022-10-05T08:44:42.159Z,15.30
2022-10-05T08:47:27.372Z,15.60
2022-10-05T08:50:57.212Z,15.80
2022-10-05T08:53:47.626Z,16.00
2022-10-05T08:56:36.947Z,16.30
2022-10-05T08:59:32.669Z,16.50
2022-10-05T09:02:25.157Z,16.70
2022-10-05T09:05:13.022Z,16.90
2022-10-05T09:07:56.614Z,17.10
2022-10-05T09:11:21.305Z,17.20
2022-10-05T09:14:40.547Z,17.50
2022-10-05T09:17:48.304Z,17.80
2022-10-05T09:20:31.662Z,18.00
2022-10-05T09:23:13.309Z,18.10
2022-10-05T09:26:07.430Z,18.40
2022-10-05T09:28:49.281Z,18.60
2022-10-05T09:31:56.328Z,18.90
2022-10-05T09:35:04.677Z,19.20
2022-10-05T09:38:01.727Z,19.40
2022-10-05T09:41:33.876Z,19.70
2022-10-05T09:44:30.166Z,19.90
2022-10-05T09:47:46.053Z,20.20
2022-10-05T09:56:23.956Z,21.20
2022-10-05T09:59:11.741Z,21.50
2022-10-05T10:01:57.065Z,21.50
2022-10-05T10:05:05.249Z,21.40
2022-10-05T10:08:10.614Z,21.60
2022-10-05T10:11:01.480Z,21.80
2022-10-05T10:13:55.093Z,21.90
2022-10-05T10:16:43.929Z,22.20
2022-10-05T10:19:43.536Z,22.40
2022-10-05T10:22:42.913Z,22.50
2022-10-05T10:25:48.591Z,22.80
2022-10-05T10:28:27.316Z,22.90
2022-10-05T10:31:42.181Z,23.00
2022-10-05T10:34:44.612Z,22.80
2022-10-05T10:37:29.645Z,23.10
2022-10-05T10:40:35.107Z,23.20
2022-10-05T10:43:33.880Z,23.20
2022-10-05T10:46:28.592Z,23.40
2022-10-05T10:49:30.510Z,23.60
2022-10-05T10:52:23.010Z,23.70
2022-10-05T10:55:17.610Z,23.70
2022-10-05T10:58:16.011Z,23.70
2022-10-05T11:01:07.253Z,23.80
2022-10-05T11:03:59.052Z,23.80
2022-10-05T11:06:46.827Z,23.70
2022-10-05T11:09:57.996Z,23.80
2022-10-05T11:13:04.991Z,23.90
2022-10-05T11:15:52.001Z,23.90
2022-10-05T11:18:27.755Z,24.00
2022-10-05T11:21:22.353Z,24.20
2022-10-05T11:24:10.682Z,24.10
2022-10-05T11:27:16.309Z,24.40
2022-10-05T11:30:11.475Z,24.40
2022-10-05T11:33:12.059Z,24.50
2022-10-05T11:36:04.044Z,24.60
2022-10-05T11:39:03.358Z,24.00
2022-10-05T11:42:13.631Z,23.90
2022-10-05T11:45:15.223Z,24.00
2022-10-05T11:48:00.275Z,24.20
2022-10-05T11:50:31.781Z,24.40
2022-10-05T11:53:27.441Z,24.50
2022-10-05T11:56:13.211Z,24.30
2022-10-05T11:58:46.628Z,24.30
2022-10-05T12:01:13.222Z,24.50
2022-10-05T12:39:42.068Z,24.70
2022-10-05T12:57:57.018Z,24.90
2022-10-05T13:00:24.659Z,25.00
2022-10-05T13:03:26.875Z,25.10
2022-10-05T13:06:25.426Z,25.20
2022-10-05T13:09:28.693Z,25.20
2022-10-05T13:18:08.458Z,25.10
2022-10-05T13:21:02.030Z,25.20
2022-10-05T13:29:45.899Z,25.80
2022-10-05T13:33:10.543Z,26.00
2022-10-05T13:42:59.393Z,25.90
2022-10-05T13:45:42.969Z,25.80
2022-10-05T13:48:43.448Z,25.80
2022-10-05T13:51:26.017Z,25.80
2022-10-05T13:54:29.761Z,25.70
2022-10-05T13:57:22.243Z,25.80
2022-10-05T14:00:10.027Z,26.00
2022-10-05T14:02:41.711Z,25.90
2022-10-05T14:05:38.236Z,25.80
2022-10-05T14:08:04.928Z,25.80
2022-10-05T14:10:44.487Z,25.80
2022-10-05T14:13:21.040Z,25.90
2022-10-05T14:16:25.966Z,25.80
2022-10-05T14:19:24.718Z,25.70
2022-10-05T14:22:28.897Z,25.70
2022-10-05T14:25:27.673Z,25.90
2022-10-05T14:28:39.334Z,26.00
2022-10-05T14:31:28.302Z,25.90
2022-10-05T14:34:34.078Z,26.00
2022-10-05T14:40:32.861Z,26.20
2022-10-05T14:43:36.127Z,26.20
2022-10-05T14:46:28.238Z,26.20
2022-10-05T14:56:35.266Z,26.50
2022-10-05T15:02:20.498Z,26.10
2022-10-05T15:12:07.109Z,25.80
2022-10-05T15:45:16.916Z,24.80
2022-10-05T15:48:08.728Z,24.70
2022-10-05T15:53:51.261Z,24.40
2022-10-05T15:57:40.426Z,24.30
2022-10-05T16:01:08.705Z,24.20
2022-10-05T16:04:35.235Z,24.00
2022-10-05T16:07:41.540Z,23.90
2022-10-05T16:10:25.543Z,23.80
2022-10-05T16:13:55.517Z,23.60
2022-10-05T16:16:54.548Z,23.60
2022-10-05T16:20:25.921Z,23.40
2022-10-05T16:32:03.822Z,22.90
2022-10-05T16:35:08.756Z,22.80
2022-10-05T16:38:07.371Z,22.70
2022-10-05T16:41:13.545Z,22.60
2022-10-05T16:46:44.501Z,22.30
2022-10-05T16:49:29.673Z,22.00
2022-10-05T16:52:16.852Z,21.80
2022-10-05T16:54:56.725Z,21.50
2022-10-05T16:57:37.162Z,21.30
2022-10-05T17:00:24.291Z,21.10
2022-10-05T17:02:54.105Z,20.80
2022-10-05T17:05:30.564Z,20.70
2022-10-05T17:08:12.698Z,20.40
2022-10-05T17:11:08.428Z,20.20
2022-10-05T17:14:40.029Z,20.00
2022-10-05T17:17:48.500Z,19.70
2022-10-05T17:20:54.763Z,19.60
2022-10-05T17:23:28.554Z,19.40
2022-10-05T17:26:32.894Z,19.30
2022-10-05T17:29:14.592Z,19.10
2022-10-05T17:32:08.432Z,19.00
2022-10-05T17:35:00.828Z,18.80
2022-10-05T17:38:04.718Z,18.60
2022-10-05T17:44:11.181Z,18.30
2022-10-05T17:47:47.336Z,18.10
2022-10-05T17:51:00.271Z,17.90
2022-10-05T17:54:03.843Z,17.80
2022-10-05T17:56:52.639Z,17.80
2022-10-05T18:00:02.154Z,17.80
2022-10-05T18:02:40.354Z,17.80
2022-10-05T18:05:14.487Z,17.80
2022-10-05T18:07:50.387Z,17.80
2022-10-05T18:10:29.236Z,17.80
2022-10-05T18:12:59.511Z,17.80
2022-10-05T18:15:26.568Z,17.80
2022-10-05T18:17:56.772Z,17.70
2022-10-05T18:20:31.040Z,17.70
2022-10-05T18:23:00.885Z,17.60
2022-10-05T18:25:33.544Z,17.50
2022-10-05T18:28:29.710Z,17.50
2022-10-05T18:31:45.037Z,17.30
2022-10-05T18:34:40.800Z,17.10
2022-10-05T18:37:21.026Z,16.90
2022-10-05T18:40:40.491Z,16.70
2022-10-05T18:43:39.030Z,16.50
2022-10-05T18:46:15.408Z,16.30
2022-10-05T18:49:18.227Z,16.20
2022-10-05T18:51:53.615Z,16.00
2022-10-05T18:55:05.467Z,15.80
2022-10-05T18:57:40.631Z,15.60
2022-10-05T19:00:46.271Z,15.40
2022-10-05T19:03:46.527Z,15.20
2022-10-05T19:06:28.015Z,15.10
2022-10-05T19:09:23.702Z,15.00
2022-10-05T19:12:29.274Z,14.90
2022-10-05T19:15:21.852Z,14.90
2022-10-05T19:17:55.092Z,15.00
2022-10-05T19:23:51.655Z,14.90
2022-10-05T19:26:51.849Z,14.80
2022-10-05T19:29:45.069Z,14.60
2022-10-05T19:35:33.350Z,14.40
2022-10-05T19:38:54.549Z,14.30
2022-10-05T19:41:27.793Z,14.20
2022-10-05T19:44:26.760Z,14.10
2022-10-05T19:47:27.819Z,14.10
2022-10-05T19:50:32.586Z,14.10
2022-10-05T19:55:49.536Z,14.20
2022-10-05T19:58:20.198Z,14.20
2022-10-05T20:01:06.103Z,14.20
2022-10-05T20:13:02.605Z,14.00
2022-10-05T20:15:54.826Z,13.80
2022-10-05T20:19:09.630Z,13.70
2022-10-05T20:21:40.282Z,13.60
2022-10-05T20:24:10.792Z,13.60
2022-10-05T20:27:06.967Z,13.50
2022-10-05T20:29:41.712Z,13.50
2022-10-05T20:32:19.416Z,13.60
2022-10-05T20:35:07.104Z,13.60
2022-10-05T20:37:37.396Z,13.70
2022-10-05T20:40:04.779Z,13.70
2022-10-05T20:42:35.966Z,13.70
2022-10-05T20:45:15.406Z,13.70
2022-10-05T20:51:05.173Z,13.60
2022-10-05T20:53:34.177Z,13.50
2022-10-05T20:56:03.790Z,13.50
2022-10-05T20:58:31.976Z,13.50
2022-10-05T21:01:26.814Z,13.50
2022-10-05T21:04:06.354Z,13.40
2022-10-05T21:07:23.275Z,13.40
2022-10-05T21:09:55.990Z,13.20
2022-10-05T21:12:32.012Z,13.10
2022-10-05T21:15:00.746Z,13.00
2022-10-05T21:17:32.204Z,12.90
2022-10-05T21:19:59.345Z,12.80
2022-10-05T21:22:26.371Z,12.80
2022-10-05T21:24:54.414Z,12.70
2022-10-05T21:27:49.405Z,12.80
2022-10-05T21:30:16.365Z,12.80
2022-10-05T21:32:48.315Z,12.70
2022-10-05T21:35:16.275Z,12.70
2022-10-05T21:37:46.605Z,12.70
2022-10-05T21:40:15.434Z,12.70
2022-10-05T21:42:43.131Z,12.70
2022-10-05T21:48:15.818Z,12.70
2022-10-05T21:50:56.586Z,12.70
2022-10-05T21:53:36.759Z,12.70
2022-10-05T21:56:10.300Z,12.70
2022-10-05T21:58:43.365Z,12.70
2022-10-05T22:01:29.795Z,12.70
2022-10-05T22:04:26.008Z,12.70
2022-10-05T22:06:55.207Z,12.70
2022-10-05T22:09:25.460Z,12.70
2022-10-05T22:12:02.210Z,12.70
2022-10-05T22:14:34.865Z,12.70
2022-10-05T22:17:03.017Z,12.70
2022-10-05T22:19:34.929Z,12.70
2022-10-05T22:22:11.994Z,12.80
2022-10-05T22:24:40.462Z,12.80
2022-10-05T22:30:05.060Z,12.80
2022-10-05T22:32:38.428Z,12.80
2022-10-05T22:35:11.226Z,12.70
2022-10-05T22:37:39.803Z,12.80
2022-10-05T22:40:10.404Z,12.70
2022-10-05T22:42:43.522Z,12.70
2022-10-05T22:45:11.241Z,12.70
2022-10-05T22:47:39.518Z,12.60
2022-10-05T22:50:08.722Z,12.70
2022-10-05T22:52:39.238Z,12.70
2022-10-05T22:55:07.624Z,12.70
2022-10-05T23:00:57.182Z,12.60
2022-10-05T23:03:23.322Z,12.60
2022-10-05T23:06:08.377Z,12.50
2022-10-05T23:08:37.444Z,12.50
2022-10-05T23:11:21.184Z,12.50
2022-10-05T23:13:51.391Z,12.40
2022-10-05T23:16:44.968Z,12.40
2022-10-05T23:19:18.014Z,12.30
2022-10-05T23:21:45.485Z,12.30
2022-10-05T23:24:13.305Z,12.30
2022-10-05T23:26:40.887Z,12.30
2022-10-05T23:29:09.706Z,12.30
2022-10-05T23:31:36.489Z,12.30
2022-10-05T23:34:06.484Z,12.30
2022-10-05T23:36:33.171Z,12.30
2022-10-05T23:39:09.811Z,12.30
